createdAt,value
2022-08-22T00:02:55.978Z,20.88
2022-08-22T00:02:56.461Z,21.14
2022-08-22T00:03:07.259Z,21.33
2022-08-22T00:03:07.476Z,21.25
2022-08-22T00:03:07.477Z,21.73
2022-08-22T00:03:15.477Z,21.47
2022-08-22T00:03:25.124Z,22.06
2022-08-22T00:06:15.254Z,23.20
2022-08-22T00:08:57.353Z,24.04
2022-08-22T00:11:39.378Z,24.41
2022-08-22T00:14:21.133Z,24.59
2022-08-22T00:17:04.548Z,24.76
2022-08-22T00:19:52.427Z,25.01
2022-08-22T00:22:32.912Z,25.25
2022-08-22T00:25:25.644Z,25.31
2022-08-22T00:28:05.894Z,25.24
2022-08-22T00:30:47.819Z,25.48
2022-08-22T00:33:28.720Z,25.48
2022-08-22T00:36:14.404Z,25.55
2022-08-22T00:38:54.018Z,25.68
2022-08-22T00:41:42.068Z,25.77
2022-08-22T00:44:51.039Z,25.88
2022-08-22T00:47:40.709Z,25.85
2022-08-22T00:50:40.951Z,25.88
2022-08-22T00:53:47.016Z,25.88
2022-08-22T00:56:45.970Z,25.71
2022-08-22T00:59:49.578Z,25.64
2022-08-22T01:02:40.800Z,25.70
2022-08-22T01:05:32.580Z,25.77
2022-08-22T01:08:23.469Z,26.03
2022-08-22T01:11:11.447Z,26.10
2022-08-22T01:14:04.885Z,26.01
2022-08-22T01:17:00.549Z,26.02
2022-08-22T01:20:02.323Z,26.25
2022-08-22T01:23:06.119Z,26.47
2022-08-22T01:26:25.576Z,26.67
2022-08-22T01:29:28.213Z,26.85
2022-08-22T01:32:57.072Z,26.91
2022-08-22T01:35:45.905Z,27.10
2022-08-22T01:38:38.363Z,27.22
2022-08-22T01:41:27.704Z,27.29
2022-08-22T01:44:14.816Z,27.41
2022-08-22T01:46:59.702Z,27.08
2022-08-22T01:49:44.556Z,25.78
2022-08-22T01:52:20.043Z,25.09
2022-08-22T01:54:57.766Z,25.75
2022-08-22T01:57:30.114Z,26.29
2022-08-22T02:00:06.593Z,26.45
2022-08-22T02:03:00.359Z,26.29
2022-08-22T02:05:37.379Z,26.14
2022-08-22T02:08:28.319Z,26.32
2022-08-22T02:11:06.921Z,26.50
2022-08-22T02:13:59.818Z,26.56
2022-08-22T02:16:39.440Z,26.51
2022-08-22T02:19:26.946Z,26.54
2022-08-22T02:22:02.800Z,26.56
2022-08-22T02:24:50.644Z,26.49
2022-08-22T02:27:46.859Z,26.52
2022-08-22T02:30:22.660Z,26.61
2022-08-22T02:33:05.810Z,26.64
2022-08-22T02:35:44.292Z,26.67
2022-08-22T02:38:32.088Z,26.68
2022-08-22T02:41:11.443Z,26.72
2022-08-22T02:43:49.750Z,26.82
2022-08-22T02:46:29.375Z,26.51
2022-08-22T02:49:11.764Z,25.26
2022-08-22T02:51:52.905Z,24.64
2022-08-22T02:54:26.878Z,25.33
2022-08-22T02:57:11.390Z,25.46
2022-08-22T03:03:16.429Z,25.47
2022-08-22T03:06:00.529Z,24.65
2022-08-22T03:08:32.356Z,25.05
2022-08-22T03:11:19.551Z,25.51
2022-08-22T03:14:00.956Z,25.78
2022-08-22T03:16:38.153Z,25.84
2022-08-22T03:19:18.680Z,25.95
2022-08-22T03:21:56.988Z,26.06
2022-08-22T03:24:31.423Z,26.16
2022-08-22T03:27:05.763Z,26.14
2022-08-22T03:29:37.724Z,26.15
2022-08-22T03:32:13.877Z,26.15
2022-08-22T03:34:57.087Z,26.11
2022-08-22T03:37:36.869Z,25.97
2022-08-22T03:40:22.096Z,25.97
2022-08-22T03:43:21.860Z,25.87
2022-08-22T03:46:35.687Z,25.78
2022-08-22T03:49:32.692Z,25.69
2022-08-22T03:52:33.637Z,25.64
2022-08-22T03:55:20.617Z,25.81
2022-08-22T03:58:23.917Z,25.79
2022-08-22T04:01:19.348Z,25.83
2022-08-22T04:04:19.687Z,25.73
2022-08-22T04:07:32.377Z,25.70
2022-08-22T04:10:24.603Z,25.60
2022-08-22T04:13:26.693Z,25.58
2022-08-22T04:16:36.222Z,25.60
2022-08-22T04:19:33.408Z,25.64
2022-08-22T04:22:26.588Z,25.63
2022-08-22T04:24:59.326Z,25.64
2022-08-22T04:27:34.153Z,25.77
2022-08-22T04:30:10.654Z,25.83
2022-08-22T04:32:44.399Z,25.79
2022-08-22T04:35:18.152Z,25.70
2022-08-22T04:37:53.380Z,25.57
2022-08-22T04:40:25.777Z,25.63
2022-08-22T04:43:00.499Z,25.60
2022-08-22T04:45:38.608Z,25.62
2022-08-22T04:48:13.123Z,25.66
2022-08-22T04:50:50.625Z,25.78
2022-08-22T04:53:30.893Z,25.84
2022-08-22T04:56:07.878Z,25.89
2022-08-22T04:58:46.266Z,25.95
2022-08-22T05:01:17.974Z,25.89
2022-08-22T05:03:51.985Z,25.69
2022-08-22T05:06:25.812Z,25.79
2022-08-22T05:08:56.468Z,25.90
2022-08-22T05:11:25.263Z,25.95
2022-08-22T05:13:57.090Z,25.99
2022-08-22T05:16:30.392Z,26.04
2022-08-22T05:19:02.908Z,25.96
2022-08-22T05:21:35.482Z,26.01
2022-08-22T05:24:07.956Z,26.02
2022-08-22T05:26:40.402Z,25.98
2022-08-22T05:29:11.560Z,26.01
2022-08-22T05:31:46.241Z,25.86
2022-08-22T05:34:19.441Z,25.78
2022-08-22T05:36:54.038Z,25.63
2022-08-22T05:39:25.372Z,25.47
2022-08-22T05:42:00.796Z,25.40
2022-08-22T05:44:32.723Z,25.50
2022-08-22T05:47:04.693Z,25.57
2022-08-22T05:49:39.556Z,25.64
2022-08-22T05:52:19.097Z,25.68
2022-08-22T05:54:56.897Z,25.60
2022-08-22T05:57:29.999Z,25.56
2022-08-22T06:00:04.783Z,25.61
2022-08-22T06:02:53.420Z,25.58
2022-08-22T06:05:27.126Z,25.68
2022-08-22T06:08:02.327Z,25.55
2022-08-22T06:10:39.711Z,25.57
2022-08-22T06:13:12.899Z,25.74
2022-08-22T06:15:47.801Z,25.84
2022-08-22T06:18:24.519Z,26.01
2022-08-22T06:20:55.708Z,26.04
2022-08-22T06:23:28.468Z,26.13
2022-08-22T06:26:00.255Z,26.04
2022-08-22T06:28:34.060Z,26.00
2022-08-22T06:31:04.309Z,25.81
2022-08-22T06:33:43.287Z,25.70
2022-08-22T06:36:33.216Z,25.52
2022-08-22T06:39:11.637Z,25.72
2022-08-22T06:41:45.657Z,25.86
2022-08-22T06:44:18.056Z,25.83
2022-08-22T06:46:50.088Z,25.94
2022-08-22T06:49:20.578Z,25.88
2022-08-22T06:51:50.446Z,25.87
2022-08-22T06:54:21.379Z,25.87
2022-08-22T06:56:52.588Z,25.85
2022-08-22T06:59:22.973Z,25.93
2022-08-22T07:01:56.316Z,25.93
2022-08-22T07:04:27.253Z,26.11
2022-08-22T07:06:57.108Z,26.24
2022-08-22T07:09:27.985Z,26.11
2022-08-22T07:11:59.629Z,26.22
2022-08-22T07:14:32.009Z,26.26
2022-08-22T07:17:02.924Z,26.15
2022-08-22T07:19:36.501Z,26.02
2022-08-22T07:22:15.010Z,25.95
2022-08-22T07:24:47.813Z,25.88
2022-08-22T07:27:25.642Z,25.79
2022-08-22T07:30:02.539Z,25.81
2022-08-22T07:32:42.533Z,26.05
2022-08-22T07:35:15.079Z,26.07
2022-08-22T07:37:59.096Z,26.19
2022-08-22T07:40:35.637Z,26.24
2022-08-22T07:43:16.999Z,26.34
2022-08-22T07:45:50.274Z,26.53
2022-08-22T07:48:26.170Z,26.54
2022-08-22T07:51:01.317Z,26.61
2022-08-22T07:53:37.288Z,26.60
2022-08-22T07:56:09.277Z,26.39
2022-08-22T07:58:41.337Z,26.47
2022-08-22T08:01:14.626Z,26.60
2022-08-22T08:03:51.002Z,26.72
2022-08-22T08:06:22.487Z,26.87
2022-08-22T08:08:52.020Z,26.76
2022-08-22T08:11:22.626Z,25.74
2022-08-22T08:13:57.540Z,25.14
2022-08-22T08:16:28.499Z,25.71
2022-08-22T08:18:59.692Z,26.27
2022-08-22T08:21:31.535Z,26.28
2022-08-22T08:24:01.038Z,26.22
2022-08-22T08:26:33.690Z,26.22
2022-08-22T08:29:03.282Z,26.22
2022-08-22T08:31:37.311Z,26.17
2022-08-22T08:34:14.758Z,26.27
2022-08-22T08:36:51.035Z,26.21
2022-08-22T08:39:24.829Z,26.37
2022-08-22T08:42:32.778Z,26.46
2022-08-22T08:45:18.367Z,26.58
2022-08-22T08:48:03.798Z,26.60
2022-08-22T08:50:46.613Z,26.57
2022-08-22T08:53:50.247Z,26.70
2022-08-22T08:56:27.256Z,26.72
2022-08-22T08:59:03.341Z,26.55
2022-08-22T09:02:09.513Z,26.58
2022-08-22T09:05:19.587Z,26.71
2022-08-22T09:08:18.507Z,26.64
2022-08-22T09:11:27.054Z,26.62
2022-08-22T09:14:11.726Z,26.58
2022-08-22T09:17:17.121Z,26.75
2022-08-22T09:20:17.790Z,26.88
2022-08-22T09:23:13.857Z,27.09
2022-08-22T09:25:44.349Z,27.14
2022-08-22T09:28:19.168Z,26.57
2022-08-22T09:31:22.208Z,25.50
2022-08-22T09:33:58.789Z,25.31
2022-08-22T09:36:33.971Z,26.30
2022-08-22T09:39:11.509Z,26.47
2022-08-22T09:41:51.596Z,26.64
2022-08-22T09:44:30.181Z,26.77
2022-08-22T09:47:10.219Z,26.72
2022-08-22T09:49:48.273Z,26.63
2022-08-22T09:52:33.927Z,26.81
2022-08-22T09:55:18.249Z,26.90
2022-08-22T09:58:12.152Z,27.14
2022-08-22T10:00:54.602Z,27.51
2022-08-22T10:03:51.392Z,27.49
2022-08-22T10:06:26.571Z,27.12
2022-08-22T10:09:03.841Z,26.77
2022-08-22T10:11:34.471Z,26.84
2022-08-22T10:14:14.772Z,27.21
2022-08-22T10:17:01.234Z,27.56
2022-08-22T10:19:36.281Z,27.88
2022-08-22T10:22:19.895Z,27.65
2022-08-22T10:24:59.562Z,26.78
2022-08-22T10:27:48.566Z,26.49
2022-08-22T10:30:20.424Z,27.42
2022-08-22T10:32:57.493Z,27.98
2022-08-22T10:35:33.904Z,28.11
2022-08-22T10:38:10.654Z,28.24
2022-08-22T10:40:47.733Z,28.30
2022-08-22T10:43:28.844Z,27.45
2022-08-22T10:46:03.559Z,26.58
2022-08-22T10:48:40.279Z,26.38
2022-08-22T10:51:31.281Z,26.94
2022-08-22T10:54:28.701Z,27.49
2022-08-22T10:57:22.718Z,28.27
2022-08-22T11:00:01.538Z,28.22
2022-08-22T11:02:45.095Z,27.30
2022-08-22T11:05:25.436Z,27.38
2022-08-22T11:08:06.924Z,27.88
2022-08-22T11:10:50.582Z,27.47
2022-08-22T11:13:28.824Z,27.06
2022-08-22T11:16:06.187Z,26.81
2022-08-22T11:18:57.956Z,27.15
2022-08-22T11:21:48.315Z,27.32
2022-08-22T11:24:56.775Z,27.79
2022-08-22T11:27:40.207Z,27.62
2022-08-22T11:30:18.743Z,27.21
2022-08-22T11:33:09.648Z,27.02
2022-08-22T11:35:42.701Z,27.00
2022-08-22T11:38:23.716Z,26.95
2022-08-22T11:41:00.897Z,27.03
2022-08-22T11:43:49.968Z,27.04
2022-08-22T11:46:23.282Z,27.08
2022-08-22T11:49:06.454Z,27.00
2022-08-22T11:51:57.833Z,26.92
2022-08-22T11:54:39.063Z,26.88
2022-08-22T11:57:13.465Z,26.99
2022-08-22T12:00:06.061Z,26.97
2022-08-22T12:02:47.494Z,27.08
2022-08-22T12:05:24.508Z,27.24
2022-08-22T12:08:03.456Z,27.49
2022-08-22T12:10:36.885Z,27.78
2022-08-22T12:13:11.291Z,28.05
2022-08-22T12:15:47.438Z,28.01
2022-08-22T12:18:41.911Z,27.48
2022-08-22T12:21:31.793Z,27.08
2022-08-22T12:24:19.423Z,27.02
2022-08-22T12:27:07.892Z,27.43
2022-08-22T12:29:48.523Z,27.69
2022-08-22T12:32:52.196Z,27.84
2022-08-22T12:35:33.912Z,27.93
2022-08-22T12:38:28.292Z,27.98
2022-08-22T12:41:28.433Z,28.01
2022-08-22T12:44:24.099Z,28.04
2022-08-22T12:47:14.412Z,28.05
2022-08-22T12:50:05.426Z,28.02
2022-08-22T12:52:58.781Z,27.99
2022-08-22T12:55:45.719Z,27.94
2022-08-22T12:58:30.554Z,27.89
2022-08-22T13:01:06.513Z,27.85
2022-08-22T13:03:41.402Z,27.84
2022-08-22T13:06:48.598Z,27.85
2022-08-22T13:09:28.518Z,27.86
2022-08-22T13:12:03.626Z,27.94
2022-08-22T13:14:34.144Z,28.04
2022-08-22T13:17:10.034Z,28.10
2022-08-22T13:20:08.675Z,28.13
2022-08-22T13:22:41.551Z,28.23
2022-08-22T13:25:26.136Z,28.35
2022-08-22T13:27:55.673Z,28.46
2022-08-22T13:30:30.962Z,28.59
2022-08-22T13:33:08.944Z,28.71
2022-08-22T13:35:44.548Z,28.83
2022-08-22T13:38:25.883Z,28.92
2022-08-22T13:40:57.222Z,29.02
2022-08-22T13:43:26.683Z,29.10
2022-08-22T13:45:58.619Z,29.12
2022-08-22T13:48:47.289Z,29.19
2022-08-22T13:51:24.025Z,29.24
2022-08-22T13:54:00.962Z,29.22
2022-08-22T13:56:39.186Z,29.22
2022-08-22T13:59:47.192Z,28.97
2022-08-22T14:02:31.003Z,28.54
2022-08-22T14:05:07.531Z,28.43
2022-08-22T14:07:44.281Z,28.60
2022-08-22T14:10:21.955Z,28.72
2022-08-22T14:13:20.947Z,28.80
2022-08-22T14:15:49.434Z,28.94
2022-08-22T14:18:31.470Z,29.00
2022-08-22T14:21:40.536Z,28.92
2022-08-22T14:24:18.970Z,28.87
2022-08-22T14:26:58.135Z,29.10
2022-08-22T14:29:31.727Z,29.21
2022-08-22T14:32:04.758Z,29.15
2022-08-22T14:34:42.017Z,28.95
2022-08-22T14:37:22.121Z,28.51
2022-08-22T14:39:56.441Z,28.04
2022-08-22T14:42:30.654Z,27.66
2022-08-22T14:45:06.434Z,27.29
2022-08-22T14:47:55.290Z,26.82
2022-08-22T14:50:42.522Z,26.38
2022-08-22T14:53:22.172Z,26.09
2022-08-22T14:56:00.701Z,25.79
2022-08-22T14:58:32.635Z,25.52
2022-08-22T15:01:10.546Z,25.25
2022-08-22T15:03:42.712Z,24.98
2022-08-22T15:06:16.227Z,24.73
2022-08-22T15:08:51.374Z,24.57
2022-08-22T15:11:26.468Z,24.43
2022-08-22T16:14:23.542Z,23.60
2022-08-22T16:17:03.794Z,23.97
2022-08-22T16:19:39.783Z,24.39
2022-08-22T16:22:15.723Z,24.34
2022-08-22T16:25:10.295Z,24.30
2022-08-22T16:27:58.751Z,24.30
2022-08-22T16:30:38.648Z,24.27
2022-08-22T16:33:17.654Z,24.27
2022-08-22T16:36:25.088Z,24.29
2022-08-22T16:38:59.003Z,24.32
2022-08-22T16:41:40.325Z,24.32
2022-08-22T16:44:40.140Z,24.32
2022-08-22T16:47:18.763Z,24.26
2022-08-22T16:50:05.906Z,24.24
2022-08-22T16:52:56.254Z,24.25
2022-08-22T16:55:50.008Z,24.25
2022-08-22T16:58:56.539Z,24.22
2022-08-22T17:01:48.075Z,24.18
2022-08-22T17:04:33.245Z,24.19
2022-08-22T17:07:15.776Z,24.19
2022-08-22T17:10:12.235Z,24.20
2022-08-22T17:13:00.462Z,24.16
2022-08-22T17:15:44.851Z,24.09
2022-08-22T17:18:35.110Z,24.02
2022-08-22T17:21:14.560Z,23.96
2022-08-22T17:23:53.678Z,23.89
2022-08-22T17:26:46.114Z,23.83
2022-08-22T17:29:27.537Z,23.80
2022-08-22T17:32:11.854Z,23.74
2022-08-22T17:34:59.720Z,23.71
2022-08-22T17:37:45.581Z,23.71
2022-08-22T17:40:32.073Z,23.63
2022-08-22T17:43:16.333Z,23.50
2022-08-22T17:46:02.934Z,23.48
2022-08-22T17:48:48.064Z,23.51
2022-08-22T17:51:28.831Z,23.61
2022-08-22T17:54:04.040Z,23.71
2022-08-22T17:56:44.345Z,23.79
2022-08-22T17:59:21.689Z,23.82
2022-08-22T18:01:59.759Z,23.86
2022-08-22T18:04:44.450Z,23.82
2022-08-22T18:07:35.451Z,23.65
2022-08-22T18:10:21.363Z,23.49
2022-08-22T18:13:06.174Z,23.43
2022-08-22T18:15:51.305Z,23.45
2022-08-22T18:18:32.051Z,23.46
2022-08-22T18:21:10.432Z,23.40
2022-08-22T18:23:45.989Z,23.34
2022-08-22T18:26:29.194Z,23.32
2022-08-22T18:29:09.302Z,23.28
2022-08-22T18:31:50.402Z,23.20
2022-08-22T18:34:26.428Z,23.09
2022-08-22T18:37:05.063Z,23.00
2022-08-22T18:39:54.752Z,22.92
2022-08-22T18:42:34.358Z,22.83
2022-08-22T18:45:07.777Z,22.70
2022-08-22T18:47:39.423Z,22.67
2022-08-22T18:50:31.263Z,22.67
2022-08-22T18:53:04.539Z,22.56
2022-08-22T18:55:56.192Z,22.50
2022-08-22T18:59:05.414Z,22.46
2022-08-22T19:01:52.450Z,22.42
2022-08-22T19:04:58.731Z,22.37
2022-08-22T19:07:51.099Z,22.34
2022-08-22T19:10:46.309Z,22.28
2022-08-22T19:13:36.170Z,22.24
2022-08-22T19:16:38.875Z,22.29
2022-08-22T19:19:17.358Z,22.21
2022-08-22T19:25:28.771Z,22.15
2022-08-22T19:28:22.484Z,22.10
2022-08-22T19:30:55.386Z,21.99
2022-08-22T19:33:34.680Z,21.91
2022-08-22T19:36:13.138Z,21.93
2022-08-22T19:39:01.073Z,22.02
2022-08-22T19:41:45.124Z,22.16
2022-08-22T19:44:33.019Z,22.20
2022-08-22T19:47:11.189Z,22.15
2022-08-22T19:49:44.120Z,22.10
2022-08-22T19:52:25.755Z,22.10
2022-08-22T19:55:03.000Z,22.13
2022-08-22T19:57:41.627Z,22.18
2022-08-22T20:00:14.179Z,22.22
2022-08-22T20:02:58.124Z,22.23
2022-08-22T20:05:34.417Z,22.19
2022-08-22T20:08:18.798Z,22.16
2022-08-22T20:10:58.253Z,22.15
2022-08-22T20:13:30.536Z,22.15
2022-08-22T20:16:10.611Z,22.12
2022-08-22T20:18:53.496Z,22.12
2022-08-22T20:21:43.337Z,22.11
2022-08-22T20:24:16.020Z,22.15
2022-08-22T20:27:10.024Z,22.18
2022-08-22T20:29:36.337Z,22.17
2022-08-22T20:32:06.186Z,22.14
2022-08-22T20:34:38.665Z,22.16
2022-08-22T20:37:29.524Z,22.15
2022-08-22T20:40:07.635Z,22.16
2022-08-22T20:42:59.378Z,22.16
2022-08-22T20:45:30.671Z,22.18
2022-08-22T20:48:02.206Z,22.18
2022-08-22T20:50:32.495Z,22.20
2022-08-22T20:53:14.993Z,22.22
2022-08-22T20:55:53.077Z,22.21
2022-08-22T20:58:24.334Z,22.20
2022-08-22T21:00:56.137Z,22.18
2022-08-22T21:03:36.891Z,22.18
2022-08-22T21:06:13.588Z,22.17
2022-08-22T21:08:43.311Z,22.18
2022-08-22T21:11:40.529Z,22.20
2022-08-22T21:14:19.527Z,22.20
2022-08-22T21:16:48.194Z,22.19
2022-08-22T21:19:24.020Z,22.16
2022-08-22T21:22:09.482Z,22.16
2022-08-22T21:24:38.033Z,22.16
2022-08-22T21:27:07.213Z,22.19
2022-08-22T21:29:44.132Z,22.22
2022-08-22T21:32:23.167Z,22.24
2022-08-22T21:34:52.220Z,22.31
2022-08-22T21:37:26.343Z,22.47
2022-08-22T21:40:03.085Z,22.62
2022-08-22T21:42:35.127Z,22.73
2022-08-22T21:45:09.670Z,22.79
2022-08-22T21:47:40.257Z,22.82
2022-08-22T21:50:24.277Z,22.87
2022-08-22T21:53:11.812Z,22.85
2022-08-22T21:55:42.440Z,22.84
2022-08-22T21:58:35.978Z,22.73
2022-08-22T22:01:29.916Z,22.42
2022-08-22T22:03:59.441Z,21.95
2022-08-22T22:06:28.115Z,21.68
2022-08-22T22:08:56.272Z,21.57
2022-08-22T22:11:24.483Z,21.47
2022-08-22T22:13:52.906Z,21.36
2022-08-22T22:16:25.209Z,21.23
2022-08-22T22:18:53.628Z,21.04
2022-08-22T22:21:22.362Z,20.93
2022-08-22T22:23:51.828Z,20.92
2022-08-22T22:26:22.967Z,20.96
2022-08-22T22:28:50.548Z,21.03
2022-08-22T22:31:18.702Z,21.07
2022-08-22T22:33:46.968Z,21.10
2022-08-22T22:36:20.132Z,21.13
2022-08-22T22:38:48.707Z,21.17
2022-08-22T22:41:24.613Z,21.20
2022-08-22T22:43:53.137Z,21.25
2022-08-22T22:46:21.793Z,21.30
2022-08-22T22:48:50.454Z,21.36
2022-08-22T22:51:21.730Z,21.41
2022-08-22T22:53:50.261Z,21.45
2022-08-22T22:56:23.632Z,21.47
2022-08-22T22:59:00.625Z,21.48
2022-08-22T23:01:31.955Z,21.46
2022-08-22T23:04:05.678Z,21.43
2022-08-22T23:06:34.255Z,21.40
2022-08-22T23:09:02.997Z,21.39
2022-08-22T23:11:31.659Z,21.35
2022-08-22T23:14:01.737Z,21.30
2022-08-22T23:16:36.506Z,21.25
2022-08-22T23:19:08.964Z,21.23
2022-08-22T23:21:37.167Z,21.21
2022-08-22T23:24:06.050Z,21.16
2022-08-22T23:26:37.108Z,21.09
2022-08-22T23:29:06.156Z,21.02
2022-08-22T23:31:40.962Z,20.96
2022-08-22T23:34:12.620Z,20.93
2022-08-22T23:36:43.125Z,20.92
2022-08-22T23:39:13.053Z,20.87
2022-08-22T23:41:42.133Z,20.82
2022-08-22T23:44:13.772Z,20.73
2022-08-22T23:46:42.984Z,20.65
2022-08-22T23:49:13.502Z,20.59
2022-08-22T23:51:43.006Z,20.54
2022-08-22T23:54:12.131Z,20.52
2022-08-22T23:56:43.985Z,20.53
2022-08-22T23:59:14.453Z,20.58
